sensor_id;sensor_type;location;lat;lon;timestamp;pressure;altitude;pressure_sealevel;temperature;humidity
14594;BME280;7383;52.354;9.756;2022-09-09T00:01:51;-12763.53;;;17.79;100.00
14594;BME280;7383;52.354;9.756;2022-09-09T00:04:26;-12763.34;;;17.78;100.00
14594;BME280;7383;52.354;9.756;2022-09-09T00:07:00;-12762.81;;;17.75;100.00
14594;BME280;7383;52.354;9.756;2022-09-09T00:09:35;-12762.91;;;17.76;100.00
14594;BME280;7383;52.354;9.756;2022-09-09T00:12:10;-12762.66;;;17.74;100.00
14594;BME280;7383;52.354;9.756;2022-09-09T00:14:46;-12762.66;;;17.74;100.00
14594;BME280;7383;52.354;9.756;2022-09-09T00:17:35;-12762.47;;;17.73;100.00
14594;BME280;7383;52.354;9.756;2022-09-09T00:20:12;-12761.88;;;17.69;100.00
14594;BME280;7383;52.354;9.756;2022-09-09T00:22:49;-12761.78;;;17.69;100.00
14594;BME280;7383;52.354;9.756;2022-09-09T00:25:24;-12761.44;;;17.67;100.00
14594;BME280;7383;52.354;9.756;2022-09-09T00:27:54;-12761.44;;;17.67;100.00
14594;BME280;7383;52.354;9.756;2022-09-09T00:30:23;-12760.84;;;17.63;100.00
14594;BME280;7383;52.354;9.756;2022-09-09T00:32:54;-12758.84;;;17.52;100.00
14594;BME280;7383;52.354;9.756;2022-09-09T00:35:25;-12757.13;;;17.42;100.00
14594;BME280;7383;52.354;9.756;2022-09-09T00:38:03;-12755.41;;;17.32;100.00
14594;BME280;7383;52.354;9.756;2022-09-09T00:40:34;-12754.72;;;17.28;100.00
14594;BME280;7383;52.354;9.756;2022-09-09T00:43:16;-12755.50;;;17.32;100.00
14594;BME280;7383;52.354;9.756;2022-09-09T00:45:58;-12755.50;;;17.32;100.00
14594;BME280;7383;52.354;9.756;2022-09-09T00:48:36;-12755.75;;;17.34;100.00
14594;BME280;7383;52.354;9.756;2022-09-09T00:51:15;-12755.22;;;17.31;100.00
14594;BME280;7383;52.354;9.756;2022-09-09T00:54:02;-12754.63;;;17.27;100.00
14594;BME280;7383;52.354;9.756;2022-09-09T00:56:37;-12753.41;;;17.20;100.00
14594;BME280;7383;52.354;9.756;2022-09-09T00:59:16;-12752.72;;;17.16;100.00
14594;BME280;7383;52.354;9.756;2022-09-09T01:01:49;-12751.78;;;17.10;100.00
14594;BME280;7383;52.354;9.756;2022-09-09T01:04:25;-12750.66;;;17.04;100.00
14594;BME280;7383;52.354;9.756;2022-09-09T01:07:03;-12750.47;;;17.03;100.00
14594;BME280;7383;52.354;9.756;2022-09-09T01:09:44;-12749.88;;;16.99;100.00
14594;BME280;7383;52.354;9.756;2022-09-09T01:12:27;-12749.78;;;16.99;100.00
14594;BME280;7383;52.354;9.756;2022-09-09T01:15:03;-12749.78;;;16.99;100.00
14594;BME280;7383;52.354;9.756;2022-09-09T01:17:36;-12749.78;;;16.99;100.00
14594;BME280;7383;52.354;9.756;2022-09-09T01:20:13;-12748.84;;;16.93;100.00
14594;BME280;7383;52.354;9.756;2022-09-09T01:22:52;-12748.56;;;16.92;100.00
14594;BME280;7383;52.354;9.756;2022-09-09T01:25:28;-12749.00;;;16.94;100.00
14594;BME280;7383;52.354;9.756;2022-09-09T01:28:00;-12747.38;;;16.85;100.00
14594;BME280;7383;52.354;9.756;2022-09-09T01:30:27;-12747.88;;;16.88;100.00
14594;BME280;7383;52.354;9.756;2022-09-09T01:32:56;-12747.78;;;16.87;100.00
14594;BME280;7383;52.354;9.756;2022-09-09T01:35:34;-12748.56;;;16.92;100.00
14594;BME280;7383;52.354;9.756;2022-09-09T01:38:03;-12748.84;;;16.93;100.00
14594;BME280;7383;52.354;9.756;2022-09-09T01:40:31;-12749.00;;;16.94;100.00
14594;BME280;7383;52.354;9.756;2022-09-09T01:42:59;-12749.19;;;16.95;100.00
14594;BME280;7383;52.354;9.756;2022-09-09T01:45:26;-12749.53;;;16.97;100.00
14594;BME280;7383;52.354;9.756;2022-09-09T01:47:53;-12749.53;;;16.97;100.00
14594;BME280;7383;52.354;9.756;2022-09-09T01:50:20;-12749.78;;;16.99;100.00
14594;BME280;7383;52.354;9.756;2022-09-09T01:52:50;-12750.03;;;17.00;100.00
14594;BME280;7383;52.354;9.756;2022-09-09T01:55:23;-12749.09;;;16.95;100.00
14594;BME280;7383;52.354;9.756;2022-09-09T01:58:06;-12748.31;;;16.90;100.00
14594;BME280;7383;52.354;9.756;2022-09-09T02:00:38;-12747.78;;;16.87;100.00
14594;BME280;7383;52.354;9.756;2022-09-09T02:03:12;-12747.09;;;16.83;100.00
14594;BME280;7383;52.354;9.756;2022-09-09T02:05:46;-12746.66;;;16.81;100.00
14594;BME280;7383;52.354;9.756;2022-09-09T02:08:17;-12746.16;;;16.78;100.00
14594;BME280;7383;52.354;9.756;2022-09-09T02:10:52;-12746.25;;;16.78;100.00
14594;BME280;7383;52.354;9.756;2022-09-09T02:13:22;-12746.06;;;16.77;100.00
14594;BME280;7383;52.354;9.756;2022-09-09T02:15:54;-12746.16;;;16.78;100.00
14594;BME280;7383;52.354;9.756;2022-09-09T02:18:25;-12746.16;;;16.78;100.00
14594;BME280;7383;52.354;9.756;2022-09-09T02:20:53;-12745.72;;;16.75;100.00
14594;BME280;7383;52.354;9.756;2022-09-09T02:23:20;-12745.91;;;16.76;100.00
14594;BME280;7383;52.354;9.756;2022-09-09T02:25:48;-12745.63;;;16.75;100.00
14594;BME280;7383;52.354;9.756;2022-09-09T02:28:18;-12745.56;;;16.74;100.00
14594;BME280;7383;52.354;9.756;2022-09-09T02:30:49;-12745.63;;;16.75;100.00
14594;BME280;7383;52.354;9.756;2022-09-09T02:33:22;-12745.97;;;16.77;100.00
14594;BME280;7383;52.354;9.756;2022-09-09T02:35:51;-12746.16;;;16.78;100.00
14594;BME280;7383;52.354;9.756;2022-09-09T02:38:20;-12746.31;;;16.79;100.00
14594;BME280;7383;52.354;9.756;2022-09-09T02:40:48;-12746.59;;;16.80;100.00
14594;BME280;7383;52.354;9.756;2022-09-09T02:43:15;-12746.50;;;16.80;100.00
14594;BME280;7383;52.354;9.756;2022-09-09T02:45:51;-12745.97;;;16.77;100.00
14594;BME280;7383;52.354;9.756;2022-09-09T02:48:27;-12745.91;;;16.76;100.00
14594;BME280;7383;52.354;9.756;2022-09-09T02:51:02;-12746.31;;;16.79;100.00
14594;BME280;7383;52.354;9.756;2022-09-09T02:53:37;-12745.38;;;16.73;100.00
14594;BME280;7383;52.354;9.756;2022-09-09T02:56:14;-12745.38;;;16.73;100.00
14594;BME280;7383;52.354;9.756;2022-09-09T02:58:45;-12745.13;;;16.71;100.00
14594;BME280;7383;52.354;9.756;2022-09-09T03:01:18;-12745.13;;;16.71;100.00
14594;BME280;7383;52.354;9.756;2022-09-09T03:03:45;-12743.47;;;16.62;100.00
14594;BME280;7383;52.354;9.756;2022-09-09T03:06:11;-12742.44;;;16.56;100.00
14594;BME280;7383;52.354;9.756;2022-09-09T03:08:39;-12743.22;;;16.60;100.00
14594;BME280;7383;52.354;9.756;2022-09-09T03:11:07;-12743.22;;;16.60;100.00
14594;BME280;7383;52.354;9.756;2022-09-09T03:13:34;-12743.13;;;16.60;100.00
14594;BME280;7383;52.354;9.756;2022-09-09T03:16:01;-12743.28;;;16.61;100.00
14594;BME280;7383;52.354;9.756;2022-09-09T03:18:30;-12743.03;;;16.59;100.00
14594;BME280;7383;52.354;9.756;2022-09-09T03:20:57;-12743.03;;;16.59;100.00
14594;BME280;7383;52.354;9.756;2022-09-09T03:23:24;-12743.47;;;16.62;100.00
14594;BME280;7383;52.354;9.756;2022-09-09T03:25:51;-12743.13;;;16.60;100.00
14594;BME280;7383;52.354;9.756;2022-09-09T03:28:22;-12743.28;;;16.61;100.00
14594;BME280;7383;52.354;9.756;2022-09-09T03:30:50;-12743.66;;;16.63;100.00
14594;BME280;7383;52.354;9.756;2022-09-09T03:33:17;-12743.28;;;16.61;100.00
14594;BME280;7383;52.354;9.756;2022-09-09T03:35:46;-12742.69;;;16.57;100.00
14594;BME280;7383;52.354;9.756;2022-09-09T03:38:13;-12743.03;;;16.59;100.00
14594;BME280;7383;52.354;9.756;2022-09-09T03:40:48;-12742.88;;;16.58;100.00
14594;BME280;7383;52.354;9.756;2022-09-09T03:43:14;-12742.78;;;16.58;100.00
14594;BME280;7383;52.354;9.756;2022-09-09T03:45:45;-12743.13;;;16.60;100.00
14594;BME280;7383;52.354;9.756;2022-09-09T03:48:11;-12743.91;;;16.64;100.00
14594;BME280;7383;52.354;9.756;2022-09-09T03:50:38;-12743.81;;;16.64;100.00
14594;BME280;7383;52.354;9.756;2022-09-09T03:53:05;-12745.03;;;16.71;100.00
14594;BME280;7383;52.354;9.756;2022-09-09T03:55:32;-12744.94;;;16.70;100.00
14594;BME280;7383;52.354;9.756;2022-09-09T03:57:58;-12745.19;;;16.72;100.00
14594;BME280;7383;52.354;9.756;2022-09-09T04:00:25;-12744.34;;;16.67;100.00
14594;BME280;7383;52.354;9.756;2022-09-09T04:02:51;-12744.16;;;16.66;100.00
14594;BME280;7383;52.354;9.756;2022-09-09T04:05:19;-12743.91;;;16.64;100.00
14594;BME280;7383;52.354;9.756;2022-09-09T04:07:45;-12744.34;;;16.67;100.00
14594;BME280;7383;52.354;9.756;2022-09-09T04:10:13;-12745.28;;;16.72;100.00
14594;BME280;7383;52.354;9.756;2022-09-09T04:12:41;-12745.81;;;16.76;100.00
14594;BME280;7383;52.354;9.756;2022-09-09T04:15:08;-12746.59;;;16.80;100.00
14594;BME280;7383;52.354;9.756;2022-09-09T04:17:35;-12746.75;;;16.81;100.00
14594;BME280;7383;52.354;9.756;2022-09-09T04:20:02;-12747.44;;;16.85;100.00
14594;BME280;7383;52.354;9.756;2022-09-09T04:22:29;-12746.66;;;16.81;100.00
14594;BME280;7383;52.354;9.756;2022-09-09T04:24:55;-12747.19;;;16.84;100.00
14594;BME280;7383;52.354;9.756;2022-09-09T04:27:25;-12748.16;;;16.89;100.00
14594;BME280;7383;52.354;9.756;2022-09-09T04:30:01;-12748.66;;;16.92;100.00
14594;BME280;7383;52.354;9.756;2022-09-09T04:32:27;-12748.66;;;16.92;100.00
14594;BME280;7383;52.354;9.756;2022-09-09T04:34:53;-12748.91;;;16.94;100.00
14594;BME280;7383;52.354;9.756;2022-09-09T04:37:20;-12748.75;;;16.93;100.00
14594;BME280;7383;52.354;9.756;2022-09-09T04:39:46;-12749.19;;;16.95;100.00
14594;BME280;7383;52.354;9.756;2022-09-09T04:42:12;-12749.25;;;16.96;100.00
14594;BME280;7383;52.354;9.756;2022-09-09T04:44:40;-12749.44;;;16.97;100.00
14594;BME280;7383;52.354;9.756;2022-09-09T04:47:06;-12749.44;;;16.97;100.00
14594;BME280;7383;52.354;9.756;2022-09-09T04:49:33;-12749.59;;;16.98;100.00
14594;BME280;7383;52.354;9.756;2022-09-09T04:52:02;-12749.34;;;16.96;100.00
14594;BME280;7383;52.354;9.756;2022-09-09T04:54:29;-12749.19;;;16.95;100.00
14594;BME280;7383;52.354;9.756;2022-09-09T04:56:56;-12749.44;;;16.97;100.00
14594;BME280;7383;52.354;9.756;2022-09-09T04:59:22;-12749.00;;;16.94;100.00
14594;BME280;7383;52.354;9.756;2022-09-09T05:01:50;-12748.91;;;16.94;100.00
14594;BME280;7383;52.354;9.756;2022-09-09T05:04:16;-12748.22;;;16.90;100.00
14594;BME280;7383;52.354;9.756;2022-09-09T05:06:44;-12748.84;;;16.93;100.00
14594;BME280;7383;52.354;9.756;2022-09-09T05:09:11;-12749.34;;;16.96;100.00
14594;BME280;7383;52.354;9.756;2022-09-09T05:11:37;-12749.25;;;16.96;100.00
14594;BME280;7383;52.354;9.756;2022-09-09T05:14:04;-12749.78;;;16.99;100.00
14594;BME280;7383;52.354;9.756;2022-09-09T05:16:30;-12750.03;;;17.00;100.00
14594;BME280;7383;52.354;9.756;2022-09-09T05:18:58;-12750.31;;;17.02;100.00
14594;BME280;7383;52.354;9.756;2022-09-09T05:21:25;-12750.31;;;17.02;100.00
14594;BME280;7383;52.354;9.756;2022-09-09T05:23:53;-12750.56;;;17.03;100.00
14594;BME280;7383;52.354;9.756;2022-09-09T05:26:21;-12751.16;;;17.07;100.00
14594;BME280;7383;52.354;9.756;2022-09-09T05:28:49;-12751.16;;;17.07;100.00
14594;BME280;7383;52.354;9.756;2022-09-09T05:31:17;-12751.78;;;17.10;100.00
14594;BME280;7383;52.354;9.756;2022-09-09T05:33:44;-12752.03;;;17.12;100.00
14594;BME280;7383;52.354;9.756;2022-09-09T05:36:14;-12752.19;;;17.13;100.00
14594;BME280;7383;52.354;9.756;2022-09-09T05:38:44;-12752.03;;;17.12;100.00
14594;BME280;7383;52.354;9.756;2022-09-09T05:41:11;-12752.53;;;17.15;100.00
14594;BME280;7383;52.354;9.756;2022-09-09T05:43:38;-12752.47;;;17.14;100.00
14594;BME280;7383;52.354;9.756;2022-09-09T05:46:06;-12752.47;;;17.14;100.00
14594;BME280;7383;52.354;9.756;2022-09-09T05:48:36;-12753.84;;;17.22;100.00
14594;BME280;7383;52.354;9.756;2022-09-09T05:51:05;-12754.53;;;17.27;100.00
14594;BME280;7383;52.354;9.756;2022-09-09T05:53:33;-12755.41;;;17.32;100.00
14594;BME280;7383;52.354;9.756;2022-09-09T05:56:01;-12756.19;;;17.36;100.00
14594;BME280;7383;52.354;9.756;2022-09-09T05:58:29;-12757.66;;;17.45;100.00
14594;BME280;7383;52.354;9.756;2022-09-09T06:01:06;-12758.25;;;17.48;100.00
14594;BME280;7383;52.354;9.756;2022-09-09T06:03:35;-12757.66;;;17.45;100.00
14594;BME280;7383;52.354;9.756;2022-09-09T06:06:04;-12757.47;;;17.44;100.00
14594;BME280;7383;52.354;9.756;2022-09-09T06:08:33;-12756.78;;;17.40;100.00
14594;BME280;7383;52.354;9.756;2022-09-09T06:11:03;-12756.44;;;17.38;100.00
14594;BME280;7383;52.354;9.756;2022-09-09T06:13:31;-12756.34;;;17.37;100.00
14594;BME280;7383;52.354;9.756;2022-09-09T06:15:57;-12756.94;;;17.41;100.00
14594;BME280;7383;52.354;9.756;2022-09-09T06:18:25;-12757.31;;;17.43;100.00
14594;BME280;7383;52.354;9.756;2022-09-09T06:20:56;-12757.72;;;17.45;100.00
14594;BME280;7383;52.354;9.756;2022-09-09T06:23:23;-12758.16;;;17.48;100.00
14594;BME280;7383;52.354;9.756;2022-09-09T06:25:51;-12758.50;;;17.50;100.00
14594;BME280;7383;52.354;9.756;2022-09-09T06:28:17;-12758.69;;;17.51;100.00
14594;BME280;7383;52.354;9.756;2022-09-09T06:30:44;-12758.94;;;17.52;100.00
14594;BME280;7383;52.354;9.756;2022-09-09T06:33:10;-12759.19;;;17.54;100.00
14594;BME280;7383;52.354;9.756;2022-09-09T06:35:37;-12759.97;;;17.58;100.00
14594;BME280;7383;52.354;9.756;2022-09-09T06:38:03;-12759.72;;;17.57;100.00
14594;BME280;7383;52.354;9.756;2022-09-09T06:40:30;-12760.06;;;17.59;100.00
14594;BME280;7383;52.354;9.756;2022-09-09T06:43:00;-12760.59;;;17.62;100.00
14594;BME280;7383;52.354;9.756;2022-09-09T06:45:27;-12762.41;;;17.73;100.00
14594;BME280;7383;52.354;9.756;2022-09-09T06:47:54;-12764.56;;;17.85;100.00
14594;BME280;7383;52.354;9.756;2022-09-09T06:50:21;-12765.75;;;17.92;100.00
14594;BME280;7383;52.354;9.756;2022-09-09T06:52:47;-12766.09;;;17.94;100.00
14594;BME280;7383;52.354;9.756;2022-09-09T06:55:15;-12767.06;;;18.00;100.00
14594;BME280;7383;52.354;9.756;2022-09-09T06:57:43;-12767.75;;;18.04;100.00
14594;BME280;7383;52.354;9.756;2022-09-09T07:00:18;-12767.66;;;18.03;100.00
14594;BME280;7383;52.354;9.756;2022-09-09T07:02:44;-12767.22;;;18.01;100.00
14594;BME280;7383;52.354;9.756;2022-09-09T07:05:10;-12766.53;;;17.97;100.00
14594;BME280;7383;52.354;9.756;2022-09-09T07:07:37;-12766.09;;;17.94;100.00
14594;BME280;7383;52.354;9.756;2022-09-09T07:10:04;-12764.97;;;17.88;100.00
14594;BME280;7383;52.354;9.756;2022-09-09T07:12:30;-12764.97;;;17.88;100.00
14594;BME280;7383;52.354;9.756;2022-09-09T07:14:57;-12765.75;;;17.92;100.00
14594;BME280;7383;52.354;9.756;2022-09-09T07:17:24;-12766.28;;;17.95;100.00
14594;BME280;7383;52.354;9.756;2022-09-09T07:19:51;-12766.38;;;17.96;100.00
14594;BME280;7383;52.354;9.756;2022-09-09T07:22:17;-12767.06;;;18.00;100.00
14594;BME280;7383;52.354;9.756;2022-09-09T07:24:45;-12766.97;;;17.99;100.00
14594;BME280;7383;52.354;9.756;2022-09-09T07:27:12;-12767.47;;;18.02;100.00
14594;BME280;7383;52.354;9.756;2022-09-09T07:29:38;-12767.56;;;18.03;100.00
14594;BME280;7383;52.354;9.756;2022-09-09T07:32:04;-12768.78;;;18.10;100.00
14594;BME280;7383;52.354;9.756;2022-09-09T07:34:32;-12769.38;;;18.13;100.00
14594;BME280;7383;52.354;9.756;2022-09-09T07:36:59;-12769.47;;;18.14;100.00
14594;BME280;7383;52.354;9.756;2022-09-09T07:39:26;-12770.94;;;18.23;100.00
14594;BME280;7383;52.354;9.756;2022-09-09T07:41:52;-12771.88;;;18.28;100.00
14594;BME280;7383;52.354;9.756;2022-09-09T07:44:21;-12772.84;;;18.34;100.00
14594;BME280;7383;52.354;9.756;2022-09-09T07:46:50;-12773.78;;;18.39;100.00
14594;BME280;7383;52.354;9.756;2022-09-09T07:49:19;-12774.38;;;18.43;100.00
14594;BME280;7383;52.354;9.756;2022-09-09T07:52:08;-12775.59;;;18.50;100.00
14594;BME280;7383;52.354;9.756;2022-09-09T07:54:37;-12776.81;;;18.57;100.00
14594;BME280;7383;52.354;9.756;2022-09-09T07:57:04;-12778.00;;;18.64;100.00
14594;BME280;7383;52.354;9.756;2022-09-09T07:59:30;-12779.66;;;18.74;100.00
14594;BME280;7383;52.354;9.756;2022-09-09T08:01:57;-12780.16;;;18.77;100.00
14594;BME280;7383;52.354;9.756;2022-09-09T08:04:24;-12781.88;;;18.87;100.00
14594;BME280;7383;52.354;9.756;2022-09-09T08:06:54;-12782.91;;;18.93;100.00
14594;BME280;7383;52.354;9.756;2022-09-09T08:09:24;-12784.22;;;19.00;100.00
14594;BME280;7383;52.354;9.756;2022-09-09T08:11:52;-12785.00;;;19.05;100.00
14594;BME280;7383;52.354;9.756;2022-09-09T08:14:18;-12785.41;;;19.07;100.00
14594;BME280;7383;52.354;9.756;2022-09-09T08:16:47;-12785.69;;;19.09;100.00
14594;BME280;7383;52.354;9.756;2022-09-09T08:19:14;-12785.94;;;19.10;100.00
14594;BME280;7383;52.354;9.756;2022-09-09T08:21:41;-12787.13;;;19.17;100.00
14594;BME280;7383;52.354;9.756;2022-09-09T08:24:09;-12788.88;;;19.28;100.00
14594;BME280;7383;52.354;9.756;2022-09-09T08:26:39;-12791.00;;;19.40;100.00
14594;BME280;7383;52.354;9.756;2022-09-09T08:29:07;-12792.31;;;19.48;100.00
14594;BME280;7383;52.354;9.756;2022-09-09T08:31:36;-12793.59;;;19.55;100.00
14594;BME280;7383;52.354;9.756;2022-09-09T08:34:04;-12794.38;;;19.60;100.00
14594;BME280;7383;52.354;9.756;2022-09-09T08:36:32;-12793.50;;;19.55;100.00
14594;BME280;7383;52.354;9.756;2022-09-09T08:39:00;-12792.91;;;19.51;100.00
14594;BME280;7383;52.354;9.756;2022-09-09T08:44:32;-12794.97;;;19.63;100.00
14594;BME280;7383;52.354;9.756;2022-09-09T08:47:08;-12796.00;;;19.70;100.00
14594;BME280;7383;52.354;9.756;2022-09-09T08:49:51;-12796.53;;;19.73;100.00
14594;BME280;7383;52.354;9.756;2022-09-09T08:52:27;-12795.56;;;19.67;100.00
14594;BME280;7383;52.354;9.756;2022-09-09T08:54:56;-12795.66;;;19.68;100.00
14594;BME280;7383;52.354;9.756;2022-09-09T08:57:26;-12796.09;;;19.70;100.00
14594;BME280;7383;52.354;9.756;2022-09-09T08:59:56;-12796.59;;;19.73;100.00
14594;BME280;7383;52.354;9.756;2022-09-09T09:02:25;-12797.28;;;19.77;100.00
14594;BME280;7383;52.354;9.756;2022-09-09T09:05:06;-12797.81;;;19.80;100.00
14594;BME280;7383;52.354;9.756;2022-09-09T09:07:46;-12798.75;;;19.86;100.00
14594;BME280;7383;52.354;9.756;2022-09-09T09:10:23;-12800.13;;;19.94;100.00
14594;BME280;7383;52.354;9.756;2022-09-09T09:12:55;-12800.81;;;19.98;100.00
14594;BME280;7383;52.354;9.756;2022-09-09T09:15:31;-12800.72;;;19.97;100.00
14594;BME280;7383;52.354;9.756;2022-09-09T09:18:02;-12801.69;;;20.03;100.00
14594;BME280;7383;52.354;9.756;2022-09-09T09:20:34;-12803.56;;;20.14;100.00
14594;BME280;7383;52.354;9.756;2022-09-09T09:23:05;-12804.00;;;20.17;100.00
14594;BME280;7383;52.354;9.756;2022-09-09T09:25:35;-12804.78;;;20.21;100.00
14594;BME280;7383;52.354;9.756;2022-09-09T09:28:13;-12806.50;;;20.31;100.00
14594;BME280;7383;52.354;9.756;2022-09-09T09:30:46;-12807.00;;;20.34;100.00
14594;BME280;7383;52.354;9.756;2022-09-09T09:33:18;-12809.31;;;20.48;100.00
14594;BME280;7383;52.354;9.756;2022-09-09T09:35:50;-12810.38;;;20.54;100.00
14594;BME280;7383;52.354;9.756;2022-09-09T09:38:20;-12811.56;;;20.61;100.00
14594;BME280;7383;52.354;9.756;2022-09-09T09:40:52;-12811.06;;;20.58;100.00
14594;BME280;7383;52.354;9.756;2022-09-09T09:43:22;-12811.56;;;20.61;100.00
14594;BME280;7383;52.354;9.756;2022-09-09T09:45:51;-12811.56;;;20.61;100.00
14594;BME280;7383;52.354;9.756;2022-09-09T09:48:17;-12812.16;;;20.65;100.00
14594;BME280;7383;52.354;9.756;2022-09-09T09:50:51;-12813.03;;;20.70;100.00
14594;BME280;7383;52.354;9.756;2022-09-09T09:53:21;-12812.69;;;20.68;100.00
14594;BME280;7383;52.354;9.756;2022-09-09T09:55:53;-12814.22;;;20.77;100.00
14594;BME280;7383;52.354;9.756;2022-09-09T09:58:21;-12816.38;;;20.89;100.00
14594;BME280;7383;52.354;9.756;2022-09-09T10:00:48;-12818.44;;;21.01;100.00
14594;BME280;7383;52.354;9.756;2022-09-09T10:03:24;-12821.19;;;21.18;100.00
14594;BME280;7383;52.354;9.756;2022-09-09T10:05:54;-12822.63;;;21.26;100.00
14594;BME280;7383;52.354;9.756;2022-09-09T10:08:23;-12821.25;;;21.18;100.00
14594;BME280;7383;52.354;9.756;2022-09-09T10:11:09;-12819.13;;;21.05;100.00
14594;BME280;7383;52.354;9.756;2022-09-09T10:13:50;-12818.50;;;21.02;100.00
14594;BME280;7383;52.354;9.756;2022-09-09T10:16:28;-12817.16;;;20.94;100.00
14594;BME280;7383;52.354;9.756;2022-09-09T10:19:03;-12815.94;;;20.87;100.00
14594;BME280;7383;52.354;9.756;2022-09-09T10:21:51;-12813.88;;;20.75;100.00
14594;BME280;7383;52.354;9.756;2022-09-09T10:24:44;-12813.63;;;20.73;100.00
14594;BME280;7383;52.354;9.756;2022-09-09T10:27:20;-12812.94;;;20.69;100.00
14594;BME280;7383;52.354;9.756;2022-09-09T10:30:01;-12812.41;;;20.66;100.00
14594;BME280;7383;52.354;9.756;2022-09-09T10:32:38;-12812.00;;;20.63;100.00
14594;BME280;7383;52.354;9.756;2022-09-09T10:35:17;-12811.06;;;20.58;100.00
14594;BME280;7383;52.354;9.756;2022-09-09T10:38:16;-12810.19;;;20.53;100.00
14594;BME280;7383;52.354;9.756;2022-09-09T10:40:59;-12808.72;;;20.44;100.00
14594;BME280;7383;52.354;9.756;2022-09-09T10:43:45;-12808.47;;;20.43;100.00
14594;BME280;7383;52.354;9.756;2022-09-09T10:46:20;-12809.41;;;20.48;100.00
14594;BME280;7383;52.354;9.756;2022-09-09T10:49:09;-12810.63;;;20.55;100.00
14594;BME280;7383;52.354;9.756;2022-09-09T10:51:50;-12810.88;;;20.57;100.00
14594;BME280;7383;52.354;9.756;2022-09-09T10:54:29;-12810.53;;;20.55;100.00
14594;BME280;7383;52.354;9.756;2022-09-09T10:57:01;-12811.13;;;20.58;100.00
14594;BME280;7383;52.354;9.756;2022-09-09T10:59:32;-12813.03;;;20.70;100.00
14594;BME280;7383;52.354;9.756;2022-09-09T11:02:05;-12815.84;;;20.86;100.00
14594;BME280;7383;52.354;9.756;2022-09-09T11:04:41;-12816.72;;;20.91;100.00
14594;BME280;7383;52.354;9.756;2022-09-09T11:07:12;-12814.81;;;20.80;100.00
14594;BME280;7383;52.354;9.756;2022-09-09T11:09:42;-12811.91;;;20.63;100.00
14594;BME280;7383;52.354;9.756;2022-09-09T11:12:13;-12810.78;;;20.56;100.00
14594;BME280;7383;52.354;9.756;2022-09-09T11:14:43;-12809.84;;;20.51;100.00
14594;BME280;7383;52.354;9.756;2022-09-09T11:17:14;-12808.91;;;20.45;100.00
14594;BME280;7383;52.354;9.756;2022-09-09T11:19:44;-12808.38;;;20.42;100.00
14594;BME280;7383;52.354;9.756;2022-09-09T11:22:21;-12807.44;;;20.37;100.00
14594;BME280;7383;52.354;9.756;2022-09-09T11:24:54;-12806.06;;;20.29;100.00
14594;BME280;7383;52.354;9.756;2022-09-09T11:27:26;-12805.81;;;20.27;100.00
14594;BME280;7383;52.354;9.756;2022-09-09T11:30:20;-12803.06;;;20.11;100.00
14594;BME280;7383;52.354;9.756;2022-09-09T11:33:35;-12798.75;;;19.86;100.00
14594;BME280;7383;52.354;9.756;2022-09-09T11:36:38;-12790.06;;;19.35;100.00
14594;BME280;7383;52.354;9.756;2022-09-09T11:39:27;-12783.09;;;18.94;100.00
14594;BME280;7383;52.354;9.756;2022-09-09T11:42:05;-12776.53;;;18.55;100.00
14594;BME280;7383;52.354;9.756;2022-09-09T11:44:33;-12773.00;;;18.35;100.00
14594;BME280;7383;52.354;9.756;2022-09-09T11:46:59;-12772.16;;;18.30;100.00
14594;BME280;7383;52.354;9.756;2022-09-09T11:49:27;-12773.19;;;18.36;100.00
14594;BME280;7383;52.354;9.756;2022-09-09T11:51:56;-12773.19;;;18.36;100.00
14594;BME280;7383;52.354;9.756;2022-09-09T11:54:32;-12772.56;;;18.32;100.00
14594;BME280;7383;52.354;9.756;2022-09-09T11:57:01;-12771.88;;;18.28;100.00
14594;BME280;7383;52.354;9.756;2022-09-09T11:59:31;-12772.66;;;18.33;100.00
14594;BME280;7383;52.354;9.756;2022-09-09T12:01:59;-12773.69;;;18.39;100.00
14594;BME280;7383;52.354;9.756;2022-09-09T12:04:33;-12774.81;;;18.45;100.00
14594;BME280;7383;52.354;9.756;2022-09-09T12:07:03;-12775.41;;;18.49;100.00
14594;BME280;7383;52.354;9.756;2022-09-09T12:09:50;-12777.31;;;18.60;100.00
14594;BME280;7383;52.354;9.756;2022-09-09T12:12:30;-12779.03;;;18.70;100.00
14594;BME280;7383;52.354;9.756;2022-09-09T12:15:16;-12780.94;;;18.81;100.00
14594;BME280;7383;52.354;9.756;2022-09-09T12:17:48;-12785.00;;;19.05;100.00
14594;BME280;7383;52.354;9.756;2022-09-09T12:20:17;-12790.16;;;19.35;100.00
14594;BME280;7383;52.354;9.756;2022-09-09T12:23:16;-12798.50;;;19.84;100.00
14594;BME280;7383;52.354;9.756;2022-09-09T12:26:00;-12805.47;;;20.25;100.00
14594;BME280;7383;52.354;9.756;2022-09-09T12:28:44;-12812.59;;;20.67;100.00
14594;BME280;7383;52.354;9.756;2022-09-09T12:31:17;-12819.81;;;21.09;100.00
14594;BME280;7383;52.354;9.756;2022-09-09T12:33:49;-12825.47;;;21.43;100.00
14594;BME280;7383;52.354;9.756;2022-09-09T12:36:19;-12826.94;;;21.51;100.00
14594;BME280;7383;52.354;9.756;2022-09-09T12:38:48;-12829.16;;;21.65;100.00
14594;BME280;7383;52.354;9.756;2022-09-09T12:41:20;-12834.72;;;21.97;100.00
14594;BME280;7383;52.354;9.756;2022-09-09T12:43:49;-12838.16;;;22.18;100.00
14594;BME280;7383;52.354;9.756;2022-09-09T12:46:22;-12846.78;;;22.69;100.00
14594;BME280;7383;52.354;9.756;2022-09-09T12:48:53;-12850.66;;;22.91;100.00
14594;BME280;7383;52.354;9.756;2022-09-09T12:51:28;-12852.25;;;23.01;100.00
14594;BME280;7383;52.354;9.756;2022-09-09T12:53:55;-12843.13;;;22.47;100.00
14594;BME280;7383;52.354;9.756;2022-09-09T12:56:25;-12838.22;;;22.18;100.00
14594;BME280;7383;52.354;9.756;2022-09-09T12:58:54;-12848.69;;;22.80;100.00
14594;BME280;7383;52.354;9.756;2022-09-09T13:01:25;-12867.91;;;23.93;100.00
14594;BME280;7383;52.354;9.756;2022-09-09T13:03:52;-12888.63;;;25.16;100.00
14594;BME280;7383;52.354;9.756;2022-09-09T13:06:22;-12883.16;;;24.84;100.00
14594;BME280;7383;52.354;9.756;2022-09-09T13:08:49;-12873.03;;;24.24;100.00
14594;BME280;7383;52.354;9.756;2022-09-09T13:11:20;-12878.13;;;24.54;100.00
14594;BME280;7383;52.354;9.756;2022-09-09T13:13:54;-12872.09;;;24.18;100.00
14594;BME280;7383;52.354;9.756;2022-09-09T13:16:26;-12861.75;;;23.57;100.00